sensor_id;sensor_type;location;lat;lon;timestamp;pressure;altitude;pressure_sealevel;temperature;humidity
71974;BME280;59840;52.122;5.404;2023-01-30T00:01:15;101844.25;;;5.63;100.00
71974;BME280;59840;52.122;5.404;2023-01-30T00:03:42;101843.88;;;5.66;100.00
71974;BME280;59840;52.122;5.404;2023-01-30T00:06:09;101838.63;;;5.66;100.00
71974;BME280;59840;52.122;5.404;2023-01-30T00:08:36;101827.78;;;5.69;100.00
71974;BME280;59840;52.122;5.404;2023-01-30T00:11:07;101842.13;;;5.73;100.00
71974;BME280;59840;52.122;5.404;2023-01-30T00:13:35;101841.13;;;5.74;100.00
71974;BME280;59840;52.122;5.404;2023-01-30T00:16:02;101851.06;;;5.79;100.00
71974;BME280;59840;52.122;5.404;2023-01-30T00:18:29;101852.66;;;5.80;100.00
71974;BME280;59840;52.122;5.404;2023-01-30T00:20:57;101840.00;;;5.83;100.00
71974;BME280;59840;52.122;5.404;2023-01-30T00:23:25;101824.94;;;5.85;100.00
71974;BME280;59840;52.122;5.404;2023-01-30T00:25:52;101799.34;;;5.87;100.00
71974;BME280;59840;52.122;5.404;2023-01-30T00:28:19;101800.97;;;5.88;100.00
71974;BME280;59840;52.122;5.404;2023-01-30T00:30:50;101798.78;;;5.92;100.00
71974;BME280;59840;52.122;5.404;2023-01-30T00:33:18;101787.50;;;5.91;100.00
71974;BME280;59840;52.122;5.404;2023-01-30T00:35:49;101782.88;;;5.93;100.00
71974;BME280;59840;52.122;5.404;2023-01-30T00:38:17;101782.50;;;5.96;100.00
71974;BME280;59840;52.122;5.404;2023-01-30T00:40:43;101769.03;;;5.99;100.00
71974;BME280;59840;52.122;5.404;2023-01-30T00:43:12;101755.75;;;6.01;100.00
71974;BME280;59840;52.122;5.404;2023-01-30T00:45:58;101760.41;;;6.05;100.00
71974;BME280;59840;52.122;5.404;2023-01-30T00:48:44;101752.56;;;6.05;100.00
71974;BME280;59840;52.122;5.404;2023-01-30T00:51:10;101764.28;;;6.10;100.00
71974;BME280;59840;52.122;5.404;2023-01-30T00:53:37;101766.13;;;6.16;100.00
71974;BME280;59840;52.122;5.404;2023-01-30T00:56:04;101765.94;;;6.17;100.00
71974;BME280;59840;52.122;5.404;2023-01-30T00:58:31;101759.31;;;6.21;100.00
71974;BME280;59840;52.122;5.404;2023-01-30T01:00:58;101755.69;;;6.22;100.00
71974;BME280;59840;52.122;5.404;2023-01-30T01:03:25;101743.19;;;6.24;100.00
71974;BME280;59840;52.122;5.404;2023-01-30T01:05:52;101756.72;;;6.28;100.00
71974;BME280;59840;52.122;5.404;2023-01-30T01:08:18;101744.22;;;6.30;100.00
71974;BME280;59840;52.122;5.404;2023-01-30T01:10:45;101733.53;;;6.31;100.00
71974;BME280;59840;52.122;5.404;2023-01-30T01:13:12;101728.31;;;6.31;100.00
71974;BME280;59840;52.122;5.404;2023-01-30T01:15:38;101719.25;;;6.34;100.00
71974;BME280;59840;52.122;5.404;2023-01-30T01:18:05;101730.53;;;6.34;100.00
71974;BME280;59840;52.122;5.404;2023-01-30T01:20:32;101727.09;;;6.34;100.00
71974;BME280;59840;52.122;5.404;2023-01-30T01:22:58;101715.63;;;6.35;100.00
71974;BME280;59840;52.122;5.404;2023-01-30T01:25:25;101713.00;;;6.35;100.00
71974;BME280;59840;52.122;5.404;2023-01-30T01:27:53;101708.56;;;6.35;100.00
71974;BME280;59840;52.122;5.404;2023-01-30T01:30:19;101713.00;;;6.35;100.00
71974;BME280;59840;52.122;5.404;2023-01-30T01:32:46;101698.09;;;6.35;100.00
71974;BME280;59840;52.122;5.404;2023-01-30T01:35:13;101712.19;;;6.34;100.00
71974;BME280;59840;52.122;5.404;2023-01-30T01:37:39;101701.72;;;6.34;100.00
71974;BME280;59840;52.122;5.404;2023-01-30T01:40:06;101693.84;;;6.34;100.00
71974;BME280;59840;52.122;5.404;2023-01-30T01:42:52;101687.59;;;6.35;100.00
71974;BME280;59840;52.122;5.404;2023-01-30T01:45:23;101694.47;;;6.36;100.00
71974;BME280;59840;52.122;5.404;2023-01-30T01:48:32;101691.84;;;6.36;100.00
71974;BME280;59840;52.122;5.404;2023-01-30T01:51:08;101697.09;;;6.36;100.00
71974;BME280;59840;52.122;5.404;2023-01-30T01:53:49;101696.88;;;6.38;100.00
71974;BME280;59840;52.122;5.404;2023-01-30T01:56:18;101689.03;;;6.38;100.00
71974;BME280;59840;52.122;5.404;2023-01-30T01:58:50;101696.88;;;6.38;100.00
71974;BME280;59840;52.122;5.404;2023-01-30T02:01:18;101689.84;;;6.38;100.00
71974;BME280;59840;52.122;5.404;2023-01-30T02:03:49;101681.16;;;6.38;100.00
71974;BME280;59840;52.122;5.404;2023-01-30T02:06:19;101676.72;;;6.38;100.00
71974;BME280;59840;52.122;5.404;2023-01-30T02:08:49;101682.78;;;6.39;100.00
71974;BME280;59840;52.122;5.404;2023-01-30T02:11:28;101679.16;;;6.40;100.00
71974;BME280;59840;52.122;5.404;2023-01-30T02:13:56;101678.75;;;6.43;100.00
71974;BME280;59840;52.122;5.404;2023-01-30T02:16:23;101687.44;;;6.44;100.00
71974;BME280;59840;52.122;5.404;2023-01-30T02:18:50;101689.66;;;6.47;100.00
71974;BME280;59840;52.122;5.404;2023-01-30T02:32:01;101675.78;;;6.53;100.00
71974;BME280;59840;52.122;5.404;2023-01-30T02:34:48;101680.22;;;6.52;100.00
71974;BME280;59840;52.122;5.404;2023-01-30T02:43:32;101671.34;;;6.53;100.00
71974;BME280;59840;52.122;5.404;2023-01-30T02:46:07;101661.06;;;6.52;100.00
71974;BME280;59840;52.122;5.404;2023-01-30T02:51:29;101668.13;;;6.51;100.00
71974;BME280;59840;52.122;5.404;2023-01-30T02:53:58;101667.91;;;6.53;100.00
71974;BME280;59840;52.122;5.404;2023-01-30T02:56:25;101663.47;;;6.53;100.00
71974;BME280;59840;52.122;5.404;2023-01-30T02:59:00;101664.47;;;6.52;100.00
71974;BME280;59840;52.122;5.404;2023-01-30T03:01:54;101645.94;;;6.54;100.00
71974;BME280;59840;52.122;5.404;2023-01-30T03:09:53;101650.38;;;6.53;100.00
71974;BME280;59840;52.122;5.404;2023-01-30T03:12:29;101649.38;;;6.54;100.00
71974;BME280;59840;52.122;5.404;2023-01-30T03:15:10;101649.38;;;6.54;100.00
71974;BME280;59840;52.122;5.404;2023-01-30T03:17:41;101644.94;;;6.55;100.00
71974;BME280;59840;52.122;5.404;2023-01-30T03:20:09;101638.69;;;6.56;100.00
71974;BME280;59840;52.122;5.404;2023-01-30T03:22:36;101636.88;;;6.56;100.00
71974;BME280;59840;52.122;5.404;2023-01-30T03:25:03;101638.50;;;6.57;100.00
71974;BME280;59840;52.122;5.404;2023-01-30T03:27:29;101638.50;;;6.57;100.00
71974;BME280;59840;52.122;5.404;2023-01-30T03:29:56;101633.25;;;6.57;100.00
71974;BME280;59840;52.122;5.404;2023-01-30T03:32:22;101623.56;;;6.58;100.00
71974;BME280;59840;52.122;5.404;2023-01-30T03:34:49;101633.25;;;6.57;100.00
71974;BME280;59840;52.122;5.404;2023-01-30T03:37:15;101626.75;;;6.60;100.00
71974;BME280;59840;52.122;5.404;2023-01-30T03:39:42;101623.94;;;6.61;100.00
71974;BME280;59840;52.122;5.404;2023-01-30T03:42:09;101629.81;;;6.63;100.00
71974;BME280;59840;52.122;5.404;2023-01-30T03:44:35;101634.84;;;6.65;100.00
71974;BME280;59840;52.122;5.404;2023-01-30T03:47:02;101633.66;;;6.67;100.00
71974;BME280;59840;52.122;5.404;2023-01-30T03:49:28;101637.06;;;6.68;100.00
71974;BME280;59840;52.122;5.404;2023-01-30T03:51:55;101619.72;;;6.67;100.00
71974;BME280;59840;52.122;5.404;2023-01-30T03:54:21;101620.94;;;6.71;100.00
71974;BME280;59840;52.122;5.404;2023-01-30T03:56:48;101623.97;;;6.75;100.00
71974;BME280;59840;52.122;5.404;2023-01-30T03:59:14;101620.34;;;6.76;100.00
71974;BME280;59840;52.122;5.404;2023-01-30T04:01:41;101619.97;;;6.79;100.00
71974;BME280;59840;52.122;5.404;2023-01-30T04:04:08;101616.13;;;6.81;100.00
71974;BME280;59840;52.122;5.404;2023-01-30T04:06:34;101620.16;;;6.84;100.00
71974;BME280;59840;52.122;5.404;2023-01-30T04:09:02;101620.97;;;6.84;100.00
71974;BME280;59840;52.122;5.404;2023-01-30T04:11:28;101617.97;;;6.87;100.00
71974;BME280;59840;52.122;5.404;2023-01-30T04:13:55;101622.19;;;6.88;100.00
71974;BME280;59840;52.122;5.404;2023-01-30T04:16:24;101619.56;;;6.88;100.00
71974;BME280;59840;52.122;5.404;2023-01-30T04:18:51;101633.31;;;6.90;100.00
71974;BME280;59840;52.122;5.404;2023-01-30T04:21:18;101620.56;;;6.94;100.00
71974;BME280;59840;52.122;5.404;2023-01-30T04:23:45;101630.66;;;6.97;100.00
71974;BME280;59840;52.122;5.404;2023-01-30T04:26:12;101634.91;;;6.98;100.00
71974;BME280;59840;52.122;5.404;2023-01-30T04:28:39;101640.16;;;6.98;100.00
71974;BME280;59840;52.122;5.404;2023-01-30T04:31:06;101631.88;;;7.01;100.00
71974;BME280;59840;52.122;5.404;2023-01-30T04:33:33;101616.94;;;7.01;100.00
71974;BME280;59840;52.122;5.404;2023-01-30T04:36:02;101637.13;;;7.01;100.00
71974;BME280;59840;52.122;5.404;2023-01-30T04:38:31;101635.50;;;7.00;100.00
71974;BME280;59840;52.122;5.404;2023-01-30T04:40:58;101629.84;;;7.03;100.00
71974;BME280;59840;52.122;5.404;2023-01-30T04:43:27;101627.84;;;7.05;100.00
71974;BME280;59840;52.122;5.404;2023-01-30T04:45:54;101626.84;;;7.06;100.00
71974;BME280;59840;52.122;5.404;2023-01-30T04:48:23;101628.84;;;7.04;100.00
71974;BME280;59840;52.122;5.404;2023-01-30T04:50:52;101628.84;;;7.04;100.00
71974;BME280;59840;52.122;5.404;2023-01-30T04:53:19;101633.28;;;7.03;100.00
71974;BME280;59840;52.122;5.404;2023-01-30T04:55:46;101627.22;;;7.03;100.00
71974;BME280;59840;52.122;5.404;2023-01-30T04:58:14;101628.03;;;7.03;99.83
71974;BME280;59840;52.122;5.404;2023-01-30T05:00:40;101629.66;;;7.04;99.56
71974;BME280;59840;52.122;5.404;2023-01-30T05:03:07;101628.84;;;7.04;98.72
71974;BME280;59840;52.122;5.404;2023-01-30T05:05:34;101633.09;;;7.05;98.27
71974;BME280;59840;52.122;5.404;2023-01-30T05:08:00;101632.09;;;7.06;97.71
71974;BME280;59840;52.122;5.404;2023-01-30T05:10:27;101644.19;;;7.07;97.14
71974;BME280;59840;52.122;5.404;2023-01-30T05:12:54;101649.25;;;7.09;96.76
71974;BME280;59840;52.122;5.404;2023-01-30T05:15:20;101644.81;;;7.09;96.87
71974;BME280;59840;52.122;5.404;2023-01-30T05:17:47;101643.38;;;7.06;96.71
71974;BME280;59840;52.122;5.404;2023-01-30T05:20:13;101649.44;;;7.07;95.93
71974;BME280;59840;52.122;5.404;2023-01-30T05:22:40;101639.34;;;7.04;95.85
71974;BME280;59840;52.122;5.404;2023-01-30T05:25:07;101634.91;;;7.04;95.63
71974;BME280;59840;52.122;5.404;2023-01-30T05:27:34;101635.31;;;7.01;95.55
71974;BME280;59840;52.122;5.404;2023-01-30T05:30:01;101639.34;;;7.04;95.33
71974;BME280;59840;52.122;5.404;2023-01-30T05:32:27;101644.78;;;7.02;94.52
71974;BME280;59840;52.122;5.404;2023-01-30T05:34:56;101662.16;;;7.03;93.89
71974;BME280;59840;52.122;5.404;2023-01-30T05:37:22;101650.03;;;6.96;93.39
71974;BME280;59840;52.122;5.404;2023-01-30T05:39:50;101659.91;;;6.94;92.51
71974;BME280;59840;52.122;5.404;2023-01-30T05:42:16;101662.34;;;6.95;91.12
71974;BME280;59840;52.122;5.404;2023-01-30T05:44:43;101657.09;;;6.89;90.36
71974;BME280;59840;52.122;5.404;2023-01-30T05:47:09;101669.63;;;6.87;90.67
71974;BME280;59840;52.122;5.404;2023-01-30T05:49:36;101672.63;;;6.84;91.13
71974;BME280;59840;52.122;5.404;2023-01-30T05:52:02;101660.09;;;6.79;91.26
71974;BME280;59840;52.122;5.404;2023-01-30T05:54:29;101673.00;;;6.74;91.29
71974;BME280;59840;52.122;5.404;2023-01-30T05:56:55;101671.59;;;6.71;91.61
71974;BME280;59840;52.122;5.404;2023-01-30T05:59:22;101661.06;;;6.65;92.13
71974;BME280;59840;52.122;5.404;2023-01-30T06:01:48;101662.28;;;6.62;92.31
71974;BME280;59840;52.122;5.404;2023-01-30T06:04:15;101661.28;;;6.57;91.79
71974;BME280;59840;52.122;5.404;2023-01-30T06:06:41;101671.13;;;6.48;91.83
71974;BME280;59840;52.122;5.404;2023-01-30T06:09:09;101666.63;;;6.35;92.17
71974;BME280;59840;52.122;5.404;2023-01-30T06:11:35;101679.53;;;6.37;91.47
71974;BME280;59840;52.122;5.404;2023-01-30T06:14:02;101695.84;;;6.32;92.08
71974;BME280;59840;52.122;5.404;2023-01-30T06:16:29;101687.13;;;6.25;91.41
71974;BME280;59840;52.122;5.404;2023-01-30T06:18:55;101687.13;;;6.19;91.75
71974;BME280;59840;52.122;5.404;2023-01-30T06:21:22;101689.47;;;6.07;91.53
71974;BME280;59840;52.122;5.404;2023-01-30T06:23:48;101693.28;;;6.04;91.24
71974;BME280;59840;52.122;5.404;2023-01-30T06:26:15;101692.63;;;5.96;90.65
71974;BME280;59840;52.122;5.404;2023-01-30T06:28:42;101681.50;;;5.87;90.89
71974;BME280;59840;52.122;5.404;2023-01-30T06:31:08;101687.06;;;5.78;90.81
71974;BME280;59840;52.122;5.404;2023-01-30T06:33:35;101680.41;;;5.75;90.67
71974;BME280;59840;52.122;5.404;2023-01-30T06:36:02;101687.00;;;5.71;90.63
71974;BME280;59840;52.122;5.404;2023-01-30T06:38:29;101687.16;;;5.63;90.46
71974;BME280;59840;52.122;5.404;2023-01-30T06:40:55;101698.38;;;5.57;90.73
71974;BME280;59840;52.122;5.404;2023-01-30T06:43:22;101694.16;;;5.56;90.14
71974;BME280;59840;52.122;5.404;2023-01-30T06:45:48;101692.16;;;5.58;89.80
71974;BME280;59840;52.122;5.404;2023-01-30T06:48:15;101690.31;;;5.52;90.13
71974;BME280;59840;52.122;5.404;2023-01-30T06:50:44;101689.91;;;5.55;90.06
71974;BME280;59840;52.122;5.404;2023-01-30T06:53:11;101691.53;;;5.56;89.19
71974;BME280;59840;52.122;5.404;2023-01-30T06:55:37;101704.84;;;5.54;89.18
71974;BME280;59840;52.122;5.404;2023-01-30T06:58:08;101699.34;;;5.49;89.52
71974;BME280;59840;52.122;5.404;2023-01-30T07:00:36;101698.78;;;5.54;89.70
71974;BME280;59840;52.122;5.404;2023-01-30T07:03:09;101697.44;;;5.64;88.51
71974;BME280;59840;52.122;5.404;2023-01-30T07:05:37;101698.44;;;5.63;88.16
71974;BME280;59840;52.122;5.404;2023-01-30T07:08:04;101710.09;;;5.61;87.94
71974;BME280;59840;52.122;5.404;2023-01-30T07:10:31;101700.81;;;5.58;87.95
71974;BME280;59840;52.122;5.404;2023-01-30T07:12:58;101735.09;;;5.63;87.28
71974;BME280;59840;52.122;5.404;2023-01-30T07:15:25;101717.31;;;5.59;87.26
71974;BME280;59840;52.122;5.404;2023-01-30T07:17:51;101729.28;;;5.68;87.04
71974;BME280;59840;52.122;5.404;2023-01-30T07:20:18;101742.13;;;5.63;87.45
71974;BME280;59840;52.122;5.404;2023-01-30T07:22:52;101744.28;;;5.53;87.61
71974;BME280;59840;52.122;5.404;2023-01-30T07:25:20;101743.88;;;5.56;86.81
71974;BME280;59840;52.122;5.404;2023-01-30T07:27:55;101749.91;;;5.50;87.20
71974;BME280;59840;52.122;5.404;2023-01-30T07:30:22;101754.75;;;5.53;87.11
71974;BME280;59840;52.122;5.404;2023-01-30T07:32:50;101759.00;;;5.54;85.84
71974;BME280;59840;52.122;5.404;2023-01-30T07:35:17;101750.75;;;5.57;85.63
71974;BME280;59840;52.122;5.404;2023-01-30T07:37:46;101755.34;;;5.55;86.18
71974;BME280;59840;52.122;5.404;2023-01-30T07:40:14;101763.59;;;5.52;86.23
71974;BME280;59840;52.122;5.404;2023-01-30T07:42:41;101774.63;;;5.47;85.78
71974;BME280;59840;52.122;5.404;2023-01-30T07:45:08;101759.59;;;5.56;85.72
71974;BME280;59840;52.122;5.404;2023-01-30T07:47:35;101754.03;;;5.65;85.26
71974;BME280;59840;52.122;5.404;2023-01-30T07:50:02;101754.84;;;5.66;85.06
71974;BME280;59840;52.122;5.404;2023-01-30T07:52:28;101742.75;;;5.65;84.58
71974;BME280;59840;52.122;5.404;2023-01-30T07:54:55;101746.19;;;5.65;84.77
71974;BME280;59840;52.122;5.404;2023-01-30T07:57:22;101747.81;;;5.66;84.63
71974;BME280;59840;52.122;5.404;2023-01-30T07:59:48;101754.09;;;5.72;84.32
71974;BME280;59840;52.122;5.404;2023-01-30T08:02:15;101752.84;;;5.68;84.70
71974;BME280;59840;52.122;5.404;2023-01-30T08:04:41;101763.13;;;5.69;84.56
71974;BME280;59840;52.122;5.404;2023-01-30T08:07:08;101757.09;;;5.69;84.67
71974;BME280;59840;52.122;5.404;2023-01-30T08:09:34;101758.72;;;5.70;84.71
71974;BME280;59840;52.122;5.404;2023-01-30T08:12:01;101752.66;;;5.69;85.03
71974;BME280;59840;52.122;5.404;2023-01-30T08:14:27;101732.16;;;5.73;84.23
71974;BME280;59840;52.122;5.404;2023-01-30T08:16:56;101767.88;;;5.81;84.60
71974;BME280;59840;52.122;5.404;2023-01-30T08:19:23;101771.09;;;5.83;84.42
71974;BME280;59840;52.122;5.404;2023-01-30T08:21:49;101769.59;;;5.95;84.01
71974;BME280;59840;52.122;5.404;2023-01-30T08:24:16;101781.19;;;6.07;84.46
71974;BME280;59840;52.122;5.404;2023-01-30T08:26:42;101785.91;;;6.18;82.51
71974;BME280;59840;52.122;5.404;2023-01-30T08:29:09;101794.03;;;6.30;83.06
71974;BME280;59840;52.122;5.404;2023-01-30T08:31:35;101783.38;;;6.38;82.69
71974;BME280;59840;52.122;5.404;2023-01-30T08:34:02;101803.16;;;6.41;82.65
71974;BME280;59840;52.122;5.404;2023-01-30T08:36:29;101802.97;;;6.42;82.41
71974;BME280;59840;52.122;5.404;2023-01-30T08:38:55;101805.41;;;6.44;82.79
71974;BME280;59840;52.122;5.404;2023-01-30T08:41:22;101804.41;;;6.45;82.54
71974;BME280;59840;52.122;5.404;2023-01-30T08:43:49;101794.91;;;6.44;82.39
71974;BME280;59840;52.122;5.404;2023-01-30T08:46:15;101805.59;;;6.42;82.01
71974;BME280;59840;52.122;5.404;2023-01-30T08:48:42;101818.09;;;6.40;82.66
71974;BME280;59840;52.122;5.404;2023-01-30T08:51:15;101799.75;;;6.40;82.24
71974;BME280;59840;52.122;5.404;2023-01-30T08:53:42;101788.25;;;6.41;82.55
71974;BME280;59840;52.122;5.404;2023-01-30T08:56:08;101788.69;;;6.45;82.39
71974;BME280;59840;52.122;5.404;2023-01-30T08:58:35;101802.81;;;6.50;82.67
71974;BME280;59840;52.122;5.404;2023-01-30T09:01:05;101798.19;;;6.52;81.81
71974;BME280;59840;52.122;5.404;2023-01-30T09:03:32;101826.47;;;6.57;81.71
71974;BME280;59840;52.122;5.404;2023-01-30T09:05:59;101813.94;;;6.59;81.54
71974;BME280;59840;52.122;5.404;2023-01-30T09:08:25;101811.94;;;6.61;81.30
71974;BME280;59840;52.122;5.404;2023-01-30T09:10:57;101817.00;;;6.62;81.38
71974;BME280;59840;52.122;5.404;2023-01-30T09:13:24;101808.31;;;6.62;80.94
71974;BME280;59840;52.122;5.404;2023-01-30T09:15:50;101835.16;;;6.64;81.54
71974;BME280;59840;52.122;5.404;2023-01-30T09:18:17;101831.72;;;6.63;81.34
71974;BME280;59840;52.122;5.404;2023-01-30T09:20:44;101838.59;;;6.64;81.19
71974;BME280;59840;52.122;5.404;2023-01-30T09:23:11;101839.81;;;6.68;80.51
71974;BME280;59840;52.122;5.404;2023-01-30T09:25:37;101846.69;;;6.69;80.79
71974;BME280;59840;52.122;5.404;2023-01-30T09:28:04;101855.56;;;6.68;80.91
71974;BME280;59840;52.122;5.404;2023-01-30T09:30:31;101851.13;;;6.69;80.88
71974;BME280;59840;52.122;5.404;2023-01-30T09:32:57;101854.16;;;6.72;80.94
71974;BME280;59840;52.122;5.404;2023-01-30T09:35:24;101858.03;;;6.77;80.24
71974;BME280;59840;52.122;5.404;2023-01-30T09:37:52;101861.06;;;6.80;81.04
71974;BME280;59840;52.122;5.404;2023-01-30T09:40:25;101859.69;;;6.84;80.37
71974;BME280;59840;52.122;5.404;2023-01-30T09:43:19;101855.47;;;6.90;79.75
71974;BME280;59840;52.122;5.404;2023-01-30T09:51:44;101864.38;;;6.95;79.83
71974;BME280;59840;52.122;5.404;2023-01-30T09:54:19;101872.03;;;6.97;79.57
71974;BME280;59840;52.122;5.404;2023-01-30T09:57:20;101860.94;;;6.95;79.40
71974;BME280;59840;52.122;5.404;2023-01-30T09:59:50;101872.66;;;6.92;78.82
71974;BME280;59840;52.122;5.404;2023-01-30T10:05:11;101881.34;;;6.93;79.77
71974;BME280;59840;52.122;5.404;2023-01-30T10:15:33;101896.88;;;7.01;79.34
71974;BME280;59840;52.122;5.404;2023-01-30T10:20:58;101907.84;;;7.11;79.66
71974;BME280;59840;52.122;5.404;2023-01-30T10:26:17;101904.44;;;7.17;77.56
71974;BME280;59840;52.122;5.404;2023-01-30T10:28:56;101925.06;;;7.20;77.53
71974;BME280;59840;52.122;5.404;2023-01-30T10:31:43;101913.75;;;7.20;77.64
71974;BME280;59840;52.122;5.404;2023-01-30T10:34:32;101910.31;;;7.19;78.23
71974;BME280;59840;52.122;5.404;2023-01-30T10:37:08;101905.25;;;7.18;77.14
71974;BME280;59840;52.122;5.404;2023-01-30T10:42:33;101922.22;;;7.15;77.40
71974;BME280;59840;52.122;5.404;2023-01-30T10:45:16;101907.47;;;7.14;77.39
71974;BME280;59840;52.122;5.404;2023-01-30T10:50:23;101922.81;;;7.17;77.43
71974;BME280;59840;52.122;5.404;2023-01-30T10:52:59;101920.81;;;7.19;77.70
71974;BME280;59840;52.122;5.404;2023-01-30T10:55:41;101913.56;;;7.21;77.52
71974;BME280;59840;52.122;5.404;2023-01-30T10:58:19;101913.94;;;7.18;76.58
71974;BME280;59840;52.122;5.404;2023-01-30T11:00:59;101914.81;;;7.38;76.80
71974;BME280;59840;52.122;5.404;2023-01-30T11:03:36;101926.56;;;7.43;76.05
71974;BME280;59840;52.122;5.404;2023-01-30T11:08:39;101924.47;;;7.92;73.98
71974;BME280;59840;52.122;5.404;2023-01-30T11:14:14;101914.78;;;8.19;73.00
71974;BME280;59840;52.122;5.404;2023-01-30T11:16:50;101916.81;;;8.11;73.52
71974;BME280;59840;52.122;5.404;2023-01-30T11:19:30;101911.75;;;8.16;73.52
71974;BME280;59840;52.122;5.404;2023-01-30T11:22:03;101925.91;;;8.08;73.29
71974;BME280;59840;52.122;5.404;2023-01-30T11:24:37;101925.88;;;8.01;73.04
71974;BME280;59840;52.122;5.404;2023-01-30T11:27:32;101904.06;;;7.94;73.66
71974;BME280;59840;52.122;5.404;2023-01-30T11:30:13;101903.44;;;7.92;73.82
71974;BME280;59840;52.122;5.404;2023-01-30T11:32:42;101906.25;;;7.97;72.95
71974;BME280;59840;52.122;5.404;2023-01-30T11:37:40;101910.50;;;7.98;72.66
71974;BME280;59840;52.122;5.404;2023-01-30T11:42:49;101906.31;;;8.24;72.43
71974;BME280;59840;52.122;5.404;2023-01-30T11:45:18;101907.72;;;8.39;71.74
71974;BME280;59840;52.122;5.404;2023-01-30T11:47:49;101905.69;;;8.48;71.53
71974;BME280;59840;52.122;5.404;2023-01-30T11:50:31;101915.00;;;8.37;71.32
71974;BME280;59840;52.122;5.404;2023-01-30T11:55:54;101923.28;;;8.28;71.67
71974;BME280;59840;52.122;5.404;2023-01-30T11:58:32;101917.22;;;8.21;71.58
71974;BME280;59840;52.122;5.404;2023-01-30T12:01:01;101934.81;;;8.27;71.55
71974;BME280;59840;52.122;5.404;2023-01-30T12:03:28;101910.56;;;8.25;70.83
71974;BME280;59840;52.122;5.404;2023-01-30T12:05:56;101927.94;;;8.19;70.78
71974;BME280;59840;52.122;5.404;2023-01-30T12:08:28;101934.00;;;8.20;71.11
71974;BME280;59840;52.122;5.404;2023-01-30T12:11:28;101934.41;;;8.23;71.94
71974;BME280;59840;52.122;5.404;2023-01-30T12:14:12;101954.63;;;8.23;71.89
71974;BME280;59840;52.122;5.404;2023-01-30T12:16:51;101929.97;;;8.24;71.42
71974;BME280;59840;52.122;5.404;2023-01-30T12:24:56;101944.91;;;8.03;71.47
71974;BME280;59840;52.122;5.404;2023-01-30T12:30:01;101952.78;;;7.97;72.37
71974;BME280;59840;52.122;5.404;2023-01-30T12:32:31;101946.50;;;7.98;73.13
71974;BME280;59840;52.122;5.404;2023-01-30T12:35:00;101955.19;;;7.98;72.83
71974;BME280;59840;52.122;5.404;2023-01-30T12:40:42;101935.19;;;7.97;72.97
71974;BME280;59840;52.122;5.404;2023-01-30T12:48:33;101959.63;;;7.98;70.62
71974;BME280;59840;52.122;5.404;2023-01-30T12:57:09;101971.38;;;7.95;71.40
71974;BME280;59840;52.122;5.404;2023-01-30T13:07:32;101972.19;;;7.89;71.95
71974;BME280;59840;52.122;5.404;2023-01-30T13:10:10;101989.75;;;7.89;71.75
71974;BME280;59840;52.122;5.404;2023-01-30T13:12:54;101991.56;;;7.88;71.05
71974;BME280;59840;52.122;5.404;2023-01-30T13:16:04;101987.13;;;7.89;69.98
71974;BME280;59840;52.122;5.404;2023-01-30T13:19:04;101995.22;;;7.87;69.88
71974;BME280;59840;52.122;5.404;2023-01-30T13:21:53;102016.03;;;7.89;70.07
71974;BME280;59840;52.122;5.404;2023-01-30T13:26:59;101998.84;;;7.86;69.52
71974;BME280;59840;52.122;5.404;2023-01-30T13:32:00;101996.59;;;7.83;69.21
71974;BME280;59840;52.122;5.404;2023-01-30T13:34:38;102005.50;;;7.82;69.63
71974;BME280;59840;52.122;5.404;2023-01-30T13:37:09;102027.13;;;7.84;68.96
71974;BME280;59840;52.122;5.404;2023-01-30T13:39:44;102040.28;;;7.84;69.03
71974;BME280;59840;52.122;5.404;2023-01-30T13:44:50;102046.75;;;7.88;69.05
71974;BME280;59840;52.122;5.404;2023-01-30T13:47:34;102047.00;;;7.93;69.10
71974;BME280;59840;52.122;5.404;2023-01-30T13:50:32;102028.38;;;8.01;68.68
71974;BME280;59840;52.122;5.404;2023-01-30T13:53:31;102047.19;;;7.98;69.03
71974;BME280;59840;52.122;5.404;2023-01-30T14:01:10;102068.22;;;7.92;69.33
71974;BME280;59840;52.122;5.404;2023-01-30T14:03:39;102066.78;;;7.89;68.91
71974;BME280;59840;52.122;5.404;2023-01-30T14:11:31;102075.44;;;7.83;69.88
71974;BME280;59840;52.122;5.404;2023-01-30T14:14:25;102081.50;;;7.84;69.32
71974;BME280;59840;52.122;5.404;2023-01-30T14:17:13;102089.59;;;7.82;70.06
71974;BME280;59840;52.122;5.404;2023-01-30T14:19:55;102079.25;;;7.81;70.38
71974;BME280;59840;52.122;5.404;2023-01-30T14:30:44;102119.84;;;7.71;70.51
71974;BME280;59840;52.122;5.404;2023-01-30T14:38:16;102145.06;;;7.66;70.58
71974;BME280;59840;52.122;5.404;2023-01-30T14:40:45;102140.00;;;7.64;70.64
71974;BME280;59840;52.122;5.404;2023-01-30T14:45:48;102139.38;;;7.62;71.18
71974;BME280;59840;52.122;5.404;2023-01-30T14:56:14;102164.84;;;7.62;70.78
71974;BME280;59840;52.122;5.404;2023-01-30T14:58:59;102195.75;;;7.60;70.91
71974;BME280;59840;52.122;5.404;2023-01-30T15:01:26;102172.31;;;7.65;70.18
71974;BME280;59840;52.122;5.404;2023-01-30T15:03:53;102180.22;;;7.65;71.04
71974;BME280;59840;52.122;5.404;2023-01-30T15:06:20;102176.16;;;7.62;71.10
71974;BME280;59840;52.122;5.404;2023-01-30T15:08:51;102175.56;;;7.60;70.49
71974;BME280;59840;52.122;5.404;2023-01-30T15:11:27;102189.50;;;7.61;70.76
71974;BME280;59840;52.122;5.404;2023-01-30T15:14:23;102194.94;;;7.59;71.31
71974;BME280;59840;52.122;5.404;2023-01-30T15:17:06;102211.72;;;7.58;71.40
71974;BME280;59840;52.122;5.404;2023-01-30T15:33:31;102219.16;;;7.55;71.56
71974;BME280;59840;52.122;5.404;2023-01-30T15:35:59;102234.47;;;7.51;71.11
71974;BME280;59840;52.122;5.404;2023-01-30T15:38:33;102231.41;;;7.48;71.67
71974;BME280;59840;52.122;5.404;2023-01-30T15:41:01;102234.41;;;7.45;71.42
71974;BME280;59840;52.122;5.404;2023-01-30T15:43:51;102235.41;;;7.44;72.07
71974;BME280;59840;52.122;5.404;2023-01-30T15:51:52;102245.28;;;7.42;71.97
71974;BME280;59840;52.122;5.404;2023-01-30T15:54:21;102250.34;;;7.43;71.83